createdAt,value
2022-08-26T00:03:00.269Z,38.58
2022-08-26T00:06:04.274Z,38.10
2022-08-26T00:09:09.058Z,30.98
2022-08-26T00:12:13.591Z,40.83
2022-08-26T00:15:20.210Z,44.97
2022-08-26T00:18:24.930Z,36.08
2022-08-26T00:21:29.945Z,32.03
2022-08-26T00:24:34.181Z,38.08
2022-08-26T00:27:39.616Z,32.42
2022-08-26T00:30:47.955Z,34.10
2022-08-26T00:33:55.598Z,43.88
2022-08-26T00:37:00.403Z,40.40
2022-08-26T00:40:07.636Z,40.08
2022-08-26T00:43:16.011Z,34.08
2022-08-26T00:46:25.265Z,33.75
2022-08-26T00:49:39.621Z,37.33
2022-08-26T00:52:44.729Z,36.85
2022-08-26T00:56:01.520Z,30.85
2022-08-26T00:59:08.638Z,36.83
2022-08-26T01:02:21.151Z,43.15
2022-08-26T01:05:25.692Z,38.25
2022-08-26T01:08:30.034Z,38.70
2022-08-26T01:11:34.768Z,31.20
2022-08-26T01:14:40.986Z,30.10
2022-08-26T01:17:50.812Z,34.15
2022-08-26T01:21:24.970Z,35.67
2022-08-26T01:24:30.799Z,44.20
2022-08-26T01:27:35.367Z,33.63
2022-08-26T01:30:40.837Z,34.55
2022-08-26T01:33:52.392Z,35.65
2022-08-26T01:37:19.764Z,33.70
2022-08-26T01:40:29.673Z,34.30
2022-08-26T01:43:34.345Z,38.92
2022-08-26T01:46:38.557Z,31.15
2022-08-26T01:49:44.604Z,33.78
2022-08-26T01:52:54.693Z,30.75
2022-08-26T01:56:02.229Z,36.38
2022-08-26T01:59:10.909Z,28.95
2022-08-26T02:02:17.129Z,38.15
2022-08-26T02:05:22.100Z,36.58
2022-08-26T02:08:32.646Z,39.08
2022-08-26T02:11:37.009Z,32.13
2022-08-26T02:14:50.135Z,31.58
2022-08-26T02:17:55.615Z,36.20
2022-08-26T02:21:01.824Z,32.25
2022-08-26T02:24:13.116Z,34.10
2022-08-26T02:27:19.558Z,41.08
2022-08-26T02:30:26.867Z,37.33
2022-08-26T02:33:32.027Z,27.85
2022-08-26T02:36:36.753Z,32.35
2022-08-26T02:39:41.940Z,32.08
2022-08-26T02:42:46.229Z,30.20
2022-08-26T02:45:50.252Z,29.13
2022-08-26T02:48:54.868Z,42.13
2022-08-26T02:52:02.005Z,36.25
2022-08-26T02:55:07.066Z,35.42
2022-08-26T02:58:11.405Z,38.33
2022-08-26T03:01:25.624Z,33.90
2022-08-26T03:04:31.066Z,36.70
2022-08-26T03:07:37.948Z,35.88
2022-08-26T03:10:41.681Z,31.63
2022-08-26T03:13:45.835Z,37.78
2022-08-26T03:16:52.353Z,33.13
2022-08-26T03:19:57.279Z,29.83
2022-08-26T03:23:01.280Z,34.53
2022-08-26T03:26:07.152Z,26.92
2022-08-26T03:29:33.282Z,38.28
2022-08-26T03:32:37.450Z,30.92
2022-08-26T03:35:43.560Z,36.92
2022-08-26T03:38:47.253Z,33.15
2022-08-26T03:41:52.397Z,38.33
2022-08-26T03:44:57.218Z,32.42
2022-08-26T03:48:01.092Z,36.80
2022-08-26T03:51:12.480Z,33.20
2022-08-26T03:54:16.352Z,31.88
2022-08-26T03:57:20.753Z,35.97
2022-08-26T04:00:26.912Z,37.38
2022-08-26T04:03:49.413Z,36.40
2022-08-26T04:06:58.317Z,28.67
2022-08-26T04:10:02.496Z,35.17
2022-08-26T04:13:06.720Z,31.58
2022-08-26T04:16:10.853Z,32.83
2022-08-26T04:19:16.027Z,32.42
2022-08-26T04:22:24.184Z,29.65
2022-08-26T04:25:29.308Z,33.67
2022-08-26T04:28:33.339Z,42.20
2022-08-26T04:31:38.127Z,34.50
2022-08-26T04:34:42.044Z,35.67
2022-08-26T04:37:45.853Z,35.40
2022-08-26T04:40:49.514Z,38.15
2022-08-26T04:43:53.561Z,35.72
2022-08-26T04:46:58.598Z,36.25
2022-08-26T04:50:03.062Z,34.22
2022-08-26T04:53:07.438Z,32.90
2022-08-26T04:56:12.377Z,31.45
2022-08-26T04:59:18.128Z,31.35
2022-08-26T05:02:22.557Z,34.78
2022-08-26T05:05:27.464Z,38.90
2022-08-26T05:08:31.429Z,35.03
2022-08-26T05:11:36.087Z,40.50
2022-08-26T05:14:41.395Z,43.05
2022-08-26T05:17:45.205Z,42.10
2022-08-26T05:20:53.885Z,33.53
2022-08-26T05:23:58.943Z,31.40
2022-08-26T05:27:03.562Z,35.05
2022-08-26T05:30:15.697Z,30.17
2022-08-26T05:33:20.102Z,36.80
2022-08-26T05:36:27.425Z,33.10
2022-08-26T05:39:33.027Z,31.30
2022-08-26T05:42:36.878Z,35.60
2022-08-26T05:45:49.121Z,37.90
2022-08-26T05:48:55.165Z,36.10
2022-08-26T05:51:59.139Z,36.72
2022-08-26T05:55:04.511Z,36.70
2022-08-26T05:58:08.438Z,37.50
2022-08-26T06:01:17.655Z,37.15
2022-08-26T06:04:23.005Z,39.72
2022-08-26T06:07:50.319Z,44.28
2022-08-26T06:10:59.186Z,43.97
2022-08-26T06:14:05.338Z,37.72
2022-08-26T06:17:09.606Z,43.38
2022-08-26T06:20:14.105Z,43.45
2022-08-26T06:23:37.292Z,41.10
2022-08-26T06:26:53.957Z,35.55
2022-08-26T06:29:57.760Z,38.28
2022-08-26T06:33:01.743Z,41.38
2022-08-26T06:36:06.764Z,43.50
2022-08-26T06:39:13.671Z,37.30
2022-08-26T06:42:18.248Z,42.00
2022-08-26T06:45:22.694Z,43.42
2022-08-26T06:48:26.895Z,45.15
2022-08-26T06:51:34.566Z,50.20
2022-08-26T06:54:43.010Z,32.08
2022-08-26T06:57:47.295Z,41.92
2022-08-26T07:00:51.624Z,45.17
2022-08-26T07:03:58.928Z,47.40
2022-08-26T07:07:03.492Z,35.25
2022-08-26T07:10:08.643Z,35.22
2022-08-26T07:13:12.644Z,44.58
2022-08-26T07:16:18.126Z,32.55
2022-08-26T07:19:29.950Z,39.88
2022-08-26T07:22:37.019Z,36.42
2022-08-26T07:25:42.212Z,32.22
2022-08-26T07:28:50.546Z,42.45
2022-08-26T07:31:58.269Z,36.15
2022-08-26T07:35:02.137Z,31.80
2022-08-26T07:38:06.379Z,35.47
2022-08-26T07:41:13.273Z,39.45
2022-08-26T07:44:17.592Z,39.75
2022-08-26T07:47:25.167Z,31.05
2022-08-26T07:50:48.864Z,30.75
2022-08-26T07:53:53.498Z,40.95
2022-08-26T07:56:57.225Z,35.05
2022-08-26T08:00:02.762Z,38.38
2022-08-26T08:03:07.179Z,27.95
2022-08-26T08:06:12.248Z,31.55
2022-08-26T08:09:16.442Z,40.72
2022-08-26T08:12:20.882Z,34.40
2022-08-26T08:15:27.802Z,33.22
2022-08-26T08:18:32.029Z,39.08
2022-08-26T08:21:36.207Z,38.00
2022-08-26T08:24:40.336Z,35.75
2022-08-26T08:27:45.229Z,33.90
2022-08-26T08:30:49.756Z,38.88
2022-08-26T08:33:53.920Z,35.92
2022-08-26T08:36:58.232Z,37.72
2022-08-26T08:40:04.351Z,37.42
2022-08-26T08:43:14.738Z,40.08
2022-08-26T08:46:20.100Z,33.80
2022-08-26T08:49:25.875Z,33.17
2022-08-26T08:52:35.287Z,38.22
2022-08-26T08:55:49.771Z,44.28
2022-08-26T08:59:15.185Z,36.25
2022-08-26T09:03:01.649Z,35.35
2022-08-26T09:06:16.905Z,38.97
2022-08-26T09:09:32.844Z,35.13
2022-08-26T09:12:37.155Z,37.47
2022-08-26T09:15:54.575Z,38.88
2022-08-26T09:19:41.329Z,33.55
2022-08-26T09:22:45.920Z,31.35
2022-08-26T09:25:49.997Z,35.25
2022-08-26T09:28:58.459Z,26.15
2022-08-26T09:32:25.015Z,33.47
2022-08-26T09:35:52.230Z,40.55
2022-08-26T09:38:56.140Z,33.92
2022-08-26T09:42:19.105Z,26.27
2022-08-26T09:45:28.310Z,29.27
2022-08-26T09:48:40.520Z,33.63
2022-08-26T09:51:45.335Z,34.30
2022-08-26T09:55:02.245Z,36.13
2022-08-26T09:58:09.371Z,28.23
2022-08-26T10:01:45.914Z,30.33
2022-08-26T10:04:53.976Z,26.75
2022-08-26T10:07:59.565Z,29.90
2022-08-26T10:11:26.555Z,23.50
2022-08-26T10:14:49.818Z,30.35
2022-08-26T10:18:24.686Z,25.92
2022-08-26T10:21:38.926Z,34.20
2022-08-26T10:24:49.845Z,27.13
2022-08-26T10:28:09.103Z,26.88
2022-08-26T10:31:27.552Z,30.85
2022-08-26T10:34:33.279Z,32.15
2022-08-26T10:37:41.553Z,28.88
2022-08-26T10:41:09.752Z,36.15
2022-08-26T10:44:18.100Z,29.67
2022-08-26T10:47:31.444Z,31.55
2022-08-26T10:50:41.627Z,27.67
2022-08-26T10:53:55.775Z,31.90
2022-08-26T10:57:12.729Z,27.27
2022-08-26T11:00:41.522Z,28.95
2022-08-26T11:04:45.759Z,27.73
2022-08-26T11:08:12.902Z,30.77
2022-08-26T11:11:41.933Z,31.25
2022-08-26T11:14:53.393Z,31.20
2022-08-26T11:18:10.035Z,22.98
2022-08-26T11:21:49.573Z,25.80
2022-08-26T11:24:54.704Z,26.20
2022-08-26T11:28:00.557Z,22.25
2022-08-26T11:31:08.766Z,19.27
2022-08-26T11:34:14.066Z,30.75
2022-08-26T11:40:33.764Z,21.60
2022-08-26T11:43:39.804Z,23.73
2022-08-26T11:46:52.747Z,25.02
2022-08-26T11:50:17.043Z,26.88
2022-08-26T11:53:22.548Z,30.30
2022-08-26T11:56:33.916Z,27.33
2022-08-26T11:59:40.163Z,25.23
2022-08-26T12:02:44.694Z,26.23
2022-08-26T12:05:52.069Z,25.10
2022-08-26T12:09:01.497Z,23.92
2022-08-26T12:12:15.236Z,21.75
2022-08-26T12:15:22.668Z,17.25
2022-08-26T12:18:31.419Z,18.38
2022-08-26T12:21:35.480Z,18.75
2022-08-26T12:24:45.527Z,23.10
2022-08-26T12:27:53.743Z,20.38
2022-08-26T12:31:01.015Z,22.65
2022-08-26T12:34:17.685Z,21.77
2022-08-26T12:37:22.514Z,27.88
2022-08-26T12:40:43.816Z,21.45
2022-08-26T12:43:48.185Z,27.92
2022-08-26T12:46:52.328Z,27.90
2022-08-26T12:50:09.959Z,28.90
2022-08-26T12:53:22.407Z,27.58
2022-08-26T12:56:29.162Z,27.00
2022-08-26T12:59:32.931Z,25.67
2022-08-26T13:02:38.637Z,39.35
2022-08-26T13:05:42.515Z,26.00
2022-08-26T13:09:02.633Z,29.27
2022-08-26T13:12:06.482Z,26.15
2022-08-26T13:15:10.480Z,28.20
2022-08-26T13:18:14.410Z,37.55
2022-08-26T13:21:24.878Z,29.50
2022-08-26T13:24:34.134Z,25.73
2022-08-26T13:27:38.242Z,39.30
2022-08-26T13:30:45.723Z,28.00
2022-08-26T13:33:49.724Z,28.08
2022-08-26T13:36:56.259Z,20.35
2022-08-26T13:40:00.343Z,19.30
2022-08-26T13:43:04.767Z,22.38
2022-08-26T13:46:09.187Z,27.83
2022-08-26T13:49:13.644Z,21.83
2022-08-26T13:52:17.887Z,18.30
2022-08-26T13:55:34.417Z,23.92
2022-08-26T13:58:38.068Z,17.27
2022-08-26T14:01:42.192Z,19.75
2022-08-26T14:04:46.296Z,26.67
2022-08-26T14:07:50.276Z,26.48
2022-08-26T14:10:54.369Z,28.15
2022-08-26T14:13:58.670Z,24.05
2022-08-26T14:17:03.211Z,33.55
2022-08-26T14:20:09.701Z,23.38
2022-08-26T14:23:14.561Z,26.33
2022-08-26T14:26:27.948Z,35.72
2022-08-26T14:29:33.778Z,27.17
2022-08-26T14:32:42.823Z,32.85
2022-08-26T14:35:47.184Z,28.40
2022-08-26T14:38:54.497Z,22.83
2022-08-26T14:41:59.317Z,24.08
2022-08-26T14:45:06.698Z,19.95
2022-08-26T14:48:11.115Z,19.33
2022-08-26T14:51:15.071Z,17.85
2022-08-26T14:54:20.184Z,21.45
2022-08-26T14:57:24.494Z,23.35
2022-08-26T15:00:29.435Z,20.13
2022-08-26T15:03:33.554Z,18.25
2022-08-26T15:06:38.168Z,21.17
2022-08-26T15:09:42.808Z,20.20
2022-08-26T15:12:47.351Z,21.42
2022-08-26T15:15:51.382Z,18.65
2022-08-26T15:18:56.431Z,21.55
2022-08-26T15:22:00.254Z,17.17
2022-08-26T15:25:08.363Z,18.30
2022-08-26T15:28:12.350Z,17.30
2022-08-26T15:31:16.849Z,19.63
2022-08-26T15:34:21.045Z,17.02
2022-08-26T15:37:25.659Z,19.65
2022-08-26T15:40:29.557Z,20.05
2022-08-26T15:43:33.588Z,12.43
2022-08-26T15:46:39.125Z,15.98
2022-08-26T15:49:43.246Z,18.30
2022-08-26T15:52:47.882Z,22.33
2022-08-26T15:55:54.757Z,24.83
2022-08-26T15:59:01.346Z,18.25
2022-08-26T16:02:05.745Z,21.38
2022-08-26T16:05:10.225Z,17.00
2022-08-26T16:08:15.116Z,12.43
2022-08-26T16:11:19.852Z,17.55
2022-08-26T16:14:24.336Z,16.67
2022-08-26T16:17:28.297Z,16.73
2022-08-26T16:20:34.428Z,16.15
2022-08-26T16:23:38.606Z,19.75
2022-08-26T16:26:44.077Z,12.00
2022-08-26T16:29:48.751Z,13.93
2022-08-26T16:32:52.527Z,21.00
2022-08-26T16:35:56.295Z,17.25
2022-08-26T16:39:00.390Z,19.80
2022-08-26T16:42:04.620Z,18.38
2022-08-26T16:45:09.291Z,18.20
2022-08-26T16:48:13.447Z,14.27
2022-08-26T16:51:19.184Z,18.35
2022-08-26T16:54:23.008Z,17.05
2022-08-26T16:57:27.154Z,16.65
2022-08-26T17:00:33.002Z,16.08
2022-08-26T17:03:37.381Z,14.50
2022-08-26T17:06:41.577Z,22.55
2022-08-26T17:09:45.448Z,15.15
2022-08-26T17:12:50.694Z,14.63
2022-08-26T17:15:58.402Z,16.20
2022-08-26T17:19:05.706Z,15.70
2022-08-26T17:22:10.601Z,15.60
2022-08-26T17:25:19.285Z,16.98
2022-08-26T17:28:23.479Z,15.02
2022-08-26T17:31:27.739Z,12.93
2022-08-26T17:34:32.453Z,16.63
2022-08-26T17:37:36.915Z,19.08
2022-08-26T17:40:41.783Z,16.52
2022-08-26T17:43:45.898Z,15.77
2022-08-26T17:46:50.410Z,15.88
2022-08-26T17:49:54.230Z,14.45
2022-08-26T17:52:58.441Z,10.98
2022-08-26T17:56:08.968Z,15.93
2022-08-26T17:59:13.478Z,18.08
2022-08-26T18:02:17.641Z,20.95
2022-08-26T18:05:21.703Z,18.13
2022-08-26T18:08:25.560Z,17.35
2022-08-26T18:11:30.097Z,14.40
2022-08-26T18:14:34.306Z,17.02
2022-08-26T18:17:39.251Z,15.60
2022-08-26T18:20:45.129Z,15.77
2022-08-26T18:23:50.505Z,16.45
2022-08-26T18:26:54.398Z,16.85
2022-08-26T18:29:58.308Z,15.45
2022-08-26T18:33:03.023Z,17.17
2022-08-26T18:36:07.392Z,15.60
2022-08-26T18:39:13.391Z,15.15
2022-08-26T18:42:18.065Z,17.20
2022-08-26T18:45:23.166Z,18.65
2022-08-26T18:48:27.254Z,16.48
2022-08-26T18:51:33.613Z,18.02
2022-08-26T18:54:37.817Z,21.45
2022-08-26T18:57:41.849Z,16.13
2022-08-26T19:00:45.960Z,20.98
2022-08-26T19:03:50.395Z,19.10
2022-08-26T19:06:54.409Z,18.95
2022-08-26T19:09:58.796Z,18.15
2022-08-26T19:13:03.505Z,23.02
2022-08-26T19:16:19.423Z,25.77
2022-08-26T19:19:24.076Z,20.77
2022-08-26T19:22:27.993Z,21.58
2022-08-26T19:25:32.237Z,28.80
2022-08-26T19:28:37.127Z,23.73
2022-08-26T19:31:42.173Z,15.68
2022-08-26T19:34:48.453Z,22.55
2022-08-26T19:37:52.836Z,22.10
2022-08-26T19:40:58.874Z,20.38
2022-08-26T19:44:04.142Z,19.38
2022-08-26T19:47:09.899Z,23.15
2022-08-26T19:50:15.777Z,21.00
2022-08-26T19:53:19.938Z,18.98
2022-08-26T19:56:25.204Z,18.15
2022-08-26T19:59:29.799Z,20.23
2022-08-26T20:02:36.589Z,20.52
2022-08-26T20:05:41.407Z,17.67
2022-08-26T20:08:46.133Z,19.83
2022-08-26T20:11:50.918Z,21.85
2022-08-26T20:14:55.588Z,17.00
2022-08-26T20:17:59.815Z,16.75
2022-08-26T20:21:22.723Z,17.80
2022-08-26T20:24:27.757Z,18.20
2022-08-26T20:27:38.307Z,21.25
2022-08-26T20:30:43.193Z,20.08
2022-08-26T20:33:48.156Z,21.10
2022-08-26T20:36:52.565Z,22.77
2022-08-26T20:39:56.752Z,18.17
2022-08-26T20:43:01.122Z,15.27
2022-08-26T20:46:08.317Z,19.75
2022-08-26T20:49:20.983Z,19.95
2022-08-26T20:52:25.194Z,19.92
2022-08-26T20:55:29.659Z,15.68
2022-08-26T20:58:34.626Z,19.77
2022-08-26T21:01:42.048Z,20.33
2022-08-26T21:04:47.343Z,22.52
2022-08-26T21:07:51.867Z,19.58
2022-08-26T21:10:57.111Z,18.83
2022-08-26T21:14:06.706Z,17.45
2022-08-26T21:17:20.005Z,16.80
2022-08-26T21:20:24.131Z,19.45
2022-08-26T21:23:29.363Z,15.70
2022-08-26T21:26:33.264Z,21.40
2022-08-26T21:29:37.452Z,18.88
2022-08-26T21:32:42.066Z,21.25
2022-08-26T21:35:53.639Z,17.20
2022-08-26T21:38:59.035Z,17.65
2022-08-26T21:42:03.203Z,14.35
2022-08-26T21:45:07.800Z,15.85
2022-08-26T21:48:11.964Z,18.20
2022-08-26T21:51:18.189Z,16.88
2022-08-26T21:54:22.620Z,18.90
2022-08-26T21:57:27.928Z,21.15
2022-08-26T22:00:32.163Z,18.05
2022-08-26T22:03:47.022Z,19.98
2022-08-26T22:06:54.287Z,24.83
2022-08-26T22:09:58.666Z,20.17
2022-08-26T22:13:02.935Z,19.40
2022-08-26T22:16:07.970Z,16.10
2022-08-26T22:19:13.729Z,16.45
2022-08-26T22:22:21.008Z,16.67
2022-08-26T22:25:25.582Z,17.10
2022-08-26T22:28:29.694Z,18.55
2022-08-26T22:31:36.960Z,18.52
2022-08-26T22:34:42.789Z,15.68
2022-08-26T22:37:46.955Z,17.38
2022-08-26T22:40:57.672Z,17.13
2022-08-26T22:44:02.916Z,16.52
2022-08-26T22:47:07.256Z,19.33
2022-08-26T22:50:11.255Z,15.73
2022-08-26T22:53:16.679Z,19.23
2022-08-26T22:56:21.389Z,15.43
2022-08-26T22:59:25.330Z,18.55
2022-08-26T23:02:29.301Z,16.75
2022-08-26T23:05:33.088Z,14.57
2022-08-26T23:08:38.800Z,13.10
2022-08-26T23:11:43.733Z,13.50
2022-08-26T23:14:48.922Z,16.42
2022-08-26T23:18:09.118Z,15.20
2022-08-26T23:21:12.957Z,17.17
2022-08-26T23:24:17.425Z,14.30
2022-08-26T23:27:21.429Z,14.15
2022-08-26T23:30:27.873Z,13.55
2022-08-26T23:33:52.132Z,18.00
2022-08-26T23:36:56.937Z,13.77
2022-08-26T23:40:08.440Z,13.77
2022-08-26T23:43:12.452Z,17.42
2022-08-26T23:46:16.591Z,14.23
2022-08-26T23:49:20.642Z,21.38
2022-08-26T23:52:43.562Z,17.13
2022-08-26T23:55:49.649Z,15.88
2022-08-26T23:58:54.737Z,18.85
